createdAt,value
2022-11-05T00:00:33.921Z,99950.13
2022-11-05T00:03:44.144Z,99947.53
2022-11-05T00:06:29.097Z,99937.53
2022-11-05T00:09:13.949Z,99930.34
2022-11-05T00:11:58.785Z,99927.34
2022-11-05T00:14:43.591Z,99929.88
2022-11-05T00:17:09.755Z,99939.94
2022-11-05T00:19:36.181Z,99946.69
2022-11-05T00:22:21.235Z,99943.97
2022-11-05T00:25:06.364Z,99959.59
2022-11-05T00:27:33.542Z,99962.66
2022-11-05T00:30:00.516Z,99962.00
2022-11-05T00:32:26.704Z,99962.00
2022-11-05T00:34:53.126Z,99961.97
2022-11-05T00:37:19.245Z,99970.06
2022-11-05T00:39:45.683Z,99970.59
2022-11-05T00:42:30.358Z,99963.31
2022-11-05T00:45:02.657Z,99961.59
2022-11-05T00:47:49.199Z,99961.28
2022-11-05T00:50:16.355Z,99961.63
2022-11-05T00:53:00.778Z,99971.44
2022-11-05T00:55:42.077Z,99969.25
2022-11-05T00:58:13.806Z,99976.34
2022-11-05T01:00:43.309Z,99981.94
2022-11-05T01:03:13.333Z,99992.03
2022-11-05T01:05:43.295Z,100000.69
2022-11-05T01:08:10.536Z,100003.91
2022-11-05T01:10:57.274Z,100008.28
2022-11-05T01:13:29.336Z,100000.38
2022-11-05T01:15:56.589Z,100001.28
2022-11-05T01:18:23.567Z,99992.78
2022-11-05T01:20:50.356Z,99993.13
2022-11-05T01:23:17.096Z,100003.47
2022-11-05T01:25:44.032Z,100014.56
2022-11-05T01:28:10.263Z,100010.81
2022-11-05T01:30:37.624Z,100023.50
2022-11-05T01:33:04.153Z,100022.31
2022-11-05T01:35:30.544Z,100022.81
2022-11-05T01:37:56.665Z,100029.09
2022-11-05T01:40:24.645Z,100032.81
2022-11-05T01:42:50.844Z,100041.81
2022-11-05T01:45:18.834Z,100047.38
2022-11-05T01:47:53.250Z,100045.00
2022-11-05T01:50:22.429Z,100051.13
2022-11-05T01:52:52.133Z,100059.06
2022-11-05T01:55:25.729Z,100064.34
2022-11-05T01:57:57.154Z,100062.34
2022-11-05T02:00:23.599Z,100056.88
2022-11-05T02:02:50.364Z,100053.66
2022-11-05T02:05:17.079Z,100057.72
2022-11-05T02:07:46.729Z,100056.56
2022-11-05T02:10:15.165Z,100060.94
2022-11-05T02:12:44.694Z,100063.66
2022-11-05T02:15:18.706Z,100060.81
2022-11-05T02:18:10.576Z,100070.63
2022-11-05T02:20:49.413Z,100077.59
2022-11-05T02:23:50.466Z,100078.44
2022-11-05T02:26:44.949Z,100079.13
2022-11-05T02:29:41.489Z,100073.53
2022-11-05T02:32:36.881Z,100072.69
2022-11-05T02:35:16.830Z,100078.81
2022-11-05T02:37:51.191Z,100071.06
2022-11-05T02:40:35.652Z,100065.94
2022-11-05T02:43:15.438Z,100071.75
2022-11-05T02:45:42.016Z,100076.66
2022-11-05T02:48:25.176Z,100076.97
2022-11-05T02:51:21.193Z,100071.03
2022-11-05T02:54:19.145Z,100077.19
2022-11-05T02:56:49.376Z,100072.25
2022-11-05T02:59:15.791Z,100089.53
2022-11-05T03:01:45.151Z,100091.41
2022-11-05T03:04:15.930Z,100092.94
2022-11-05T03:06:47.884Z,100101.59
2022-11-05T03:09:23.696Z,100108.69
2022-11-05T03:12:20.703Z,100112.94
2022-11-05T03:14:54.653Z,100115.13
2022-11-05T03:17:36.199Z,100129.38
2022-11-05T03:20:23.957Z,100134.28
2022-11-05T03:22:59.168Z,100134.41
2022-11-05T03:25:28.622Z,100145.94
2022-11-05T03:28:00.750Z,100146.28
2022-11-05T03:30:27.335Z,100149.84
2022-11-05T03:33:02.773Z,100157.81
2022-11-05T03:35:35.644Z,100165.09
2022-11-05T03:38:08.977Z,100162.53
2022-11-05T03:40:38.190Z,100160.34
2022-11-05T03:43:07.389Z,100168.00
2022-11-05T03:45:41.132Z,100171.72
2022-11-05T03:48:10.857Z,100169.69
2022-11-05T03:50:52.039Z,100185.97
2022-11-05T03:53:25.036Z,100188.69
2022-11-05T03:56:14.806Z,100200.56
2022-11-05T03:58:43.814Z,100211.72
2022-11-05T04:01:11.828Z,100209.69
2022-11-05T04:03:38.146Z,100214.44
2022-11-05T04:06:26.024Z,100216.47
2022-11-05T04:09:11.086Z,100209.19
2022-11-05T04:11:56.208Z,100218.16
2022-11-05T04:14:22.387Z,100213.75
2022-11-05T04:17:08.687Z,100217.63
2022-11-05T04:19:55.624Z,100227.81
2022-11-05T04:22:41.822Z,100229.00
2022-11-05T04:25:08.255Z,100236.47
2022-11-05T04:27:35.316Z,100230.88
2022-11-05T04:30:20.876Z,100248.16
2022-11-05T04:33:03.580Z,100254.25
2022-11-05T04:35:38.857Z,100249.34
2022-11-05T04:38:08.375Z,100256.81
2022-11-05T04:40:35.137Z,100255.09
2022-11-05T04:43:01.594Z,100267.97
2022-11-05T04:45:30.461Z,100277.47
2022-11-05T04:47:56.923Z,100266.91
2022-11-05T04:50:23.592Z,100283.00
2022-11-05T04:52:50.208Z,100279.63
2022-11-05T04:55:16.289Z,100285.69
2022-11-05T04:57:43.027Z,100300.81
2022-11-05T05:00:11.038Z,100303.56
2022-11-05T05:02:37.556Z,100310.50
2022-11-05T05:05:05.426Z,100311.81
2022-11-05T05:07:33.359Z,100302.34
2022-11-05T05:10:04.468Z,100315.22
2022-11-05T05:12:32.388Z,100312.22
2022-11-05T05:14:58.602Z,100304.22
2022-11-05T05:17:25.619Z,100309.88
2022-11-05T05:20:10.592Z,100311.56
2022-11-05T05:22:36.984Z,100324.28
2022-11-05T05:25:03.823Z,100327.50
2022-11-05T05:27:30.703Z,100327.63
2022-11-05T05:29:58.738Z,100342.91
2022-11-05T05:32:25.940Z,100345.44
2022-11-05T05:34:52.087Z,100349.00
2022-11-05T05:37:19.502Z,100352.91
2022-11-05T05:39:47.090Z,100366.66
2022-11-05T05:42:13.747Z,100374.63
2022-11-05T05:44:39.945Z,100379.53
2022-11-05T05:47:06.413Z,100394.22
2022-11-05T05:49:32.564Z,100397.94
2022-11-05T05:51:59.046Z,100389.53
2022-11-05T05:54:29.263Z,100392.59
2022-11-05T05:56:59.110Z,100401.22
2022-11-05T05:59:25.288Z,100416.13
2022-11-05T06:01:51.851Z,100415.81
2022-11-05T06:04:18.987Z,100421.34
2022-11-05T06:06:46.769Z,100417.50
2022-11-05T06:09:13.913Z,100424.91
2022-11-05T06:11:40.778Z,100444.63
2022-11-05T06:14:10.646Z,100442.03
2022-11-05T06:16:38.653Z,100453.41
2022-11-05T06:19:06.259Z,100446.56
2022-11-05T06:21:32.918Z,100449.31
2022-11-05T06:24:01.449Z,100452.63
2022-11-05T06:26:28.373Z,100453.00
2022-11-05T06:28:54.686Z,100465.63
2022-11-05T06:31:21.280Z,100469.22
2022-11-05T06:33:47.933Z,100464.63
2022-11-05T06:36:16.743Z,100470.75
2022-11-05T06:38:43.235Z,100466.88
2022-11-05T06:41:10.758Z,100472.75
2022-11-05T06:43:38.170Z,100484.09
2022-11-05T06:46:05.676Z,100489.72
2022-11-05T06:48:32.411Z,100493.00
2022-11-05T06:50:58.935Z,100498.38
2022-11-05T06:53:25.141Z,100513.84
2022-11-05T06:55:51.763Z,100509.97
2022-11-05T06:58:18.177Z,100512.19
2022-11-05T07:00:44.913Z,100524.78
2022-11-05T07:03:12.281Z,100513.84
2022-11-05T07:05:43.844Z,100519.31
2022-11-05T07:08:09.972Z,100527.38
2022-11-05T07:10:36.408Z,100527.63
2022-11-05T07:13:07.707Z,100530.28
2022-11-05T07:15:36.104Z,100535.78
2022-11-05T07:18:02.786Z,100542.56
2022-11-05T07:20:33.445Z,100539.72
2022-11-05T07:23:10.912Z,100541.13
2022-11-05T07:25:38.018Z,100541.59
2022-11-05T07:28:04.166Z,100538.88
2022-11-05T07:30:32.520Z,100548.72
2022-11-05T07:32:58.738Z,100561.28
2022-11-05T07:35:25.589Z,100547.91
2022-11-05T07:37:53.433Z,100557.56
2022-11-05T07:40:21.676Z,100563.38
2022-11-05T07:42:50.739Z,100568.59
2022-11-05T07:45:18.113Z,100566.78
2022-11-05T07:47:49.109Z,100575.63
2022-11-05T07:50:18.162Z,100580.03
2022-11-05T07:52:45.038Z,100582.38
2022-11-05T07:55:12.647Z,100579.69
2022-11-05T07:57:50.248Z,100579.00
2022-11-05T08:00:20.825Z,100570.81
2022-11-05T08:03:08.743Z,100587.00
2022-11-05T08:05:37.814Z,100590.19
2022-11-05T08:08:05.832Z,100598.88
2022-11-05T08:10:33.419Z,100595.16
2022-11-05T08:12:59.691Z,100616.72
2022-11-05T08:15:26.107Z,100619.13
2022-11-05T08:18:03.443Z,100627.50
2022-11-05T08:20:30.634Z,100631.91
2022-11-05T08:22:57.153Z,100628.72
2022-11-05T08:25:24.259Z,100630.06
2022-11-05T08:28:11.175Z,100647.41
2022-11-05T08:30:37.646Z,100639.91
2022-11-05T08:33:06.718Z,100644.66
2022-11-05T08:35:34.736Z,100658.28
2022-11-05T08:38:03.119Z,100671.81
2022-11-05T08:40:31.913Z,100667.84
2022-11-05T08:42:59.789Z,100671.81
2022-11-05T08:45:26.910Z,100666.50
2022-11-05T08:48:00.404Z,100678.59
2022-11-05T08:50:27.601Z,100683.34
2022-11-05T08:52:53.798Z,100680.03
2022-11-05T08:55:20.193Z,100683.19
2022-11-05T08:57:46.280Z,100693.56
2022-11-05T09:00:14.544Z,100694.09
2022-11-05T09:02:41.208Z,100698.94
2022-11-05T09:05:08.037Z,100702.38
2022-11-05T09:07:34.144Z,100702.44
2022-11-05T09:10:02.573Z,100709.22
2022-11-05T09:12:28.699Z,100722.84
2022-11-05T09:14:55.129Z,100723.56
2022-11-05T09:17:21.489Z,100730.06
2022-11-05T09:19:48.352Z,100729.00
2022-11-05T09:22:14.828Z,100733.38
2022-11-05T09:24:42.481Z,100726.22
2022-11-05T09:27:13.827Z,100732.34
2022-11-05T09:29:41.020Z,100736.34
2022-11-05T09:32:07.957Z,100735.38
2022-11-05T09:34:35.306Z,100738.56
2022-11-05T09:37:02.273Z,100753.72
2022-11-05T09:39:28.857Z,100754.69
2022-11-05T09:42:03.810Z,100760.56
2022-11-05T09:44:44.219Z,100753.47
2022-11-05T09:47:41.394Z,100764.59
2022-11-05T09:50:24.033Z,100755.66
2022-11-05T09:52:50.225Z,100765.00
2022-11-05T09:55:39.032Z,100760.84
2022-11-05T09:59:02.988Z,100767.31
2022-11-05T10:01:36.428Z,100770.22
2022-11-05T10:04:11.719Z,100766.31
2022-11-05T10:06:46.159Z,100761.72
2022-11-05T10:09:18.416Z,100767.66
2022-11-05T10:11:53.199Z,100769.03
2022-11-05T10:14:25.279Z,100774.81
2022-11-05T10:17:07.472Z,100764.47
2022-11-05T10:19:43.639Z,100785.53
2022-11-05T10:22:15.690Z,100774.00
2022-11-05T10:24:49.422Z,100780.69
2022-11-05T10:27:22.476Z,100783.66
2022-11-05T10:29:49.609Z,100795.06
2022-11-05T10:32:41.315Z,100793.03
2022-11-05T10:35:13.857Z,100795.97
2022-11-05T10:37:41.231Z,100799.44
2022-11-05T10:40:28.458Z,100806.00
2022-11-05T10:43:16.035Z,100808.69
2022-11-05T10:46:19.217Z,100811.59
2022-11-05T10:49:23.429Z,100813.91
2022-11-05T10:51:56.360Z,100809.44
2022-11-05T10:54:29.757Z,100817.28
2022-11-05T10:56:56.250Z,100827.75
2022-11-05T10:59:26.140Z,100824.78
2022-11-05T11:02:15.827Z,100831.06
2022-11-05T11:04:42.665Z,100830.34
2022-11-05T11:07:21.625Z,100828.06
2022-11-05T11:09:49.271Z,100826.69
2022-11-05T11:12:23.767Z,100828.75
2022-11-05T11:15:02.466Z,100829.72
2022-11-05T11:17:31.706Z,100835.88
2022-11-05T11:20:26.433Z,100832.31
2022-11-05T11:23:01.452Z,100832.84
2022-11-05T11:25:31.760Z,100838.78
2022-11-05T11:28:03.023Z,100835.72
2022-11-05T11:30:30.234Z,100846.78
2022-11-05T11:33:06.010Z,100844.75
2022-11-05T11:35:36.929Z,100846.94
2022-11-05T11:38:05.483Z,100849.50
2022-11-05T11:40:35.862Z,100859.13
2022-11-05T11:43:14.772Z,100856.75
2022-11-05T11:45:48.984Z,100863.44
2022-11-05T11:48:24.842Z,100856.81
2022-11-05T11:50:51.663Z,100861.41
2022-11-05T11:53:20.870Z,100867.56
2022-11-05T11:55:59.131Z,100862.91
2022-11-05T11:58:36.679Z,100865.50
2022-11-05T12:01:09.244Z,100863.50
2022-11-05T12:03:49.260Z,100871.84
2022-11-05T12:06:28.070Z,100870.00
2022-11-05T12:09:15.737Z,100865.53
2022-11-05T12:11:50.075Z,100859.41
2022-11-05T12:14:50.757Z,100859.94
2022-11-05T12:17:46.670Z,100869.16
2022-11-05T12:20:16.146Z,100865.91
2022-11-05T12:23:11.632Z,100870.00
2022-11-05T12:25:59.553Z,100875.06
2022-11-05T12:29:04.666Z,100882.44
2022-11-05T12:31:53.051Z,100884.31
2022-11-05T12:34:30.651Z,100880.03
2022-11-05T12:37:37.502Z,100893.47
2022-11-05T12:40:03.564Z,100888.41
2022-11-05T12:42:46.773Z,100901.69
2022-11-05T12:45:37.336Z,100903.56
2022-11-05T12:48:32.806Z,100901.34
2022-11-05T12:51:14.408Z,100904.75
2022-11-05T12:53:41.103Z,100904.94
2022-11-05T12:56:20.654Z,100906.78
2022-11-05T12:58:54.302Z,100916.34
2022-11-05T13:01:31.646Z,100908.88
2022-11-05T13:04:02.491Z,100920.94
2022-11-05T13:06:39.222Z,100922.13
2022-11-05T13:09:05.770Z,100922.59
2022-11-05T13:11:43.588Z,100921.75
2022-11-05T13:14:34.427Z,100918.22
2022-11-05T13:17:10.875Z,100918.03
2022-11-05T13:19:55.989Z,100930.69
2022-11-05T13:22:29.849Z,100931.72
2022-11-05T13:25:00.537Z,100928.94
2022-11-05T13:27:45.540Z,100926.59
2022-11-05T13:30:17.317Z,100935.06
2022-11-05T13:32:48.742Z,100932.00
2022-11-05T13:35:21.434Z,100934.91
2022-11-05T13:38:12.278Z,100931.66
2022-11-05T13:41:29.711Z,100938.00
2022-11-05T13:44:26.319Z,100940.22
2022-11-05T13:47:13.718Z,100935.31
2022-11-05T13:50:17.765Z,100939.38
2022-11-05T13:52:47.378Z,100937.56
2022-11-05T13:55:30.989Z,100945.59
2022-11-05T13:58:33.480Z,100949.22
2022-11-05T14:01:24.054Z,100960.09
2022-11-05T14:03:53.137Z,100968.63
2022-11-05T14:06:26.346Z,100970.63
2022-11-05T14:08:58.042Z,100970.13
2022-11-05T14:11:46.980Z,100973.00
2022-11-05T14:14:21.048Z,100974.00
2022-11-05T14:17:06.028Z,100979.28
2022-11-05T14:19:57.548Z,100966.66
2022-11-05T14:22:33.193Z,100968.19
2022-11-05T14:25:01.575Z,100976.66
2022-11-05T14:27:31.189Z,100969.28
2022-11-05T14:29:57.379Z,100983.59
2022-11-05T14:32:27.051Z,100984.31
2022-11-05T14:35:20.824Z,100981.09
2022-11-05T14:37:55.730Z,100989.72
2022-11-05T14:40:22.028Z,101001.13
2022-11-05T14:42:51.191Z,100997.41
2022-11-05T14:45:32.458Z,101009.59
2022-11-05T14:48:20.749Z,101006.38
2022-11-05T14:50:48.556Z,101020.03
2022-11-05T14:53:24.933Z,101016.78
2022-11-05T14:56:10.886Z,101020.69
2022-11-05T14:58:42.565Z,101013.47
2022-11-05T15:01:31.519Z,101022.34
2022-11-05T15:04:15.655Z,101022.81
2022-11-05T15:07:01.840Z,101025.16
2022-11-05T15:10:02.287Z,101026.56
2022-11-05T15:13:00.909Z,101027.91
2022-11-05T15:15:38.199Z,101033.56
2022-11-05T15:18:16.265Z,101028.53
2022-11-05T15:20:46.269Z,101025.25
2022-11-05T15:23:16.387Z,101026.25
2022-11-05T15:25:53.383Z,101030.69
2022-11-05T15:28:36.243Z,101029.63
2022-11-05T15:31:05.525Z,101038.69
2022-11-05T15:33:32.541Z,101043.97
2022-11-05T15:36:22.255Z,101048.72
2022-11-05T15:39:15.182Z,101038.78
2022-11-05T15:41:35.293Z,101049.66
2022-11-05T15:44:02.303Z,101057.56
2022-11-05T15:46:29.276Z,101059.31
2022-11-05T15:49:09.185Z,101067.31
2022-11-05T15:51:35.689Z,101069.34
2022-11-05T15:56:54.852Z,101071.19
2022-11-05T15:59:23.782Z,101063.94
2022-11-05T16:02:23.148Z,101067.78
2022-11-05T16:04:50.615Z,101077.34
2022-11-05T16:07:18.805Z,101077.50
2022-11-05T16:09:55.503Z,101073.63
2022-11-05T16:12:36.148Z,101080.19
2022-11-05T16:15:08.501Z,101087.88
2022-11-05T16:17:46.154Z,101088.75
2022-11-05T16:20:22.647Z,101087.16
2022-11-05T16:22:52.154Z,101086.59
2022-11-05T16:25:27.840Z,101083.88
2022-11-05T16:27:56.640Z,101090.75
2022-11-05T16:30:24.567Z,101096.16
2022-11-05T16:32:51.779Z,101104.56
2022-11-05T16:35:24.833Z,101111.13
2022-11-05T16:37:52.526Z,101111.25
2022-11-05T16:40:24.585Z,101111.53
2022-11-05T16:42:53.161Z,101110.13
2022-11-05T16:45:23.290Z,101107.53
2022-11-05T16:47:50.146Z,101114.88
2022-11-05T16:50:19.978Z,101115.50
2022-11-05T16:52:47.129Z,101111.66
2022-11-05T16:55:15.624Z,101111.16
2022-11-05T16:57:44.895Z,101118.75
2022-11-05T17:00:15.842Z,101122.47
2022-11-05T17:02:43.511Z,101123.31
2022-11-05T17:05:26.968Z,101129.00
2022-11-05T17:07:54.795Z,101128.31
2022-11-05T17:10:22.873Z,101125.19
2022-11-05T17:12:50.247Z,101131.38
2022-11-05T17:15:30.359Z,101127.66
2022-11-05T17:17:58.182Z,101135.69
2022-11-05T17:20:38.275Z,101140.75
2022-11-05T17:23:07.445Z,101140.50
2022-11-05T17:25:33.881Z,101156.47
2022-11-05T17:28:01.108Z,101152.72
2022-11-05T17:30:27.511Z,101156.53
2022-11-05T17:32:54.243Z,101163.91
2022-11-05T17:35:22.014Z,101160.97
2022-11-05T17:37:49.622Z,101169.56
2022-11-05T17:40:19.593Z,101166.00
2022-11-05T17:42:50.220Z,101177.53
2022-11-05T17:45:17.213Z,101176.78
2022-11-05T17:47:44.105Z,101179.75
2022-11-05T17:50:12.789Z,101184.22
2022-11-05T17:52:39.227Z,101183.75
2022-11-05T17:55:15.771Z,101181.72
2022-11-05T17:57:52.005Z,101188.13
2022-11-05T18:00:23.088Z,101194.19
2022-11-05T18:02:52.386Z,101196.56
2022-11-05T18:05:20.475Z,101203.56
2022-11-05T18:07:48.198Z,101208.13
2022-11-05T18:10:15.649Z,101206.91
2022-11-05T18:12:43.438Z,101210.34
2022-11-05T18:15:10.151Z,101212.94
2022-11-05T18:17:37.122Z,101221.41
2022-11-05T18:20:09.122Z,101221.28
2022-11-05T18:22:38.000Z,101226.19
2022-11-05T18:25:05.731Z,101230.88
2022-11-05T18:27:32.936Z,101226.22
2022-11-05T18:29:59.308Z,101227.91
2022-11-05T18:32:26.280Z,101223.59
2022-11-05T18:34:53.182Z,101221.91
2022-11-05T18:37:19.735Z,101227.88
2022-11-05T18:39:49.035Z,101216.09
2022-11-05T18:42:16.724Z,101227.75
2022-11-05T18:44:43.029Z,101228.25
2022-11-05T18:47:10.141Z,101221.16
2022-11-05T18:49:36.876Z,101223.63
2022-11-05T18:52:04.327Z,101230.59
2022-11-05T18:54:30.744Z,101237.09
2022-11-05T18:56:57.461Z,101235.03
2022-11-05T18:59:37.755Z,101226.53
2022-11-05T19:02:07.163Z,101231.00
2022-11-05T19:04:36.938Z,101228.25
2022-11-05T19:07:05.442Z,101219.94
2022-11-05T19:09:37.760Z,101238.22
2022-11-05T19:12:06.500Z,101241.78
2022-11-05T19:14:34.552Z,101233.69
2022-11-05T19:17:01.919Z,101237.00
2022-11-05T19:19:28.495Z,101237.34
2022-11-05T19:21:55.398Z,101241.25
2022-11-05T19:24:21.828Z,101238.16
2022-11-05T19:26:49.933Z,101237.06
2022-11-05T19:29:16.386Z,101239.78
2022-11-05T19:31:43.029Z,101241.25
2022-11-05T19:34:09.280Z,101238.34
2022-11-05T19:36:36.190Z,101235.03
2022-11-05T19:39:05.760Z,101250.56
2022-11-05T19:41:32.372Z,101262.59
2022-11-05T19:44:00.989Z,101255.31
2022-11-05T19:46:31.887Z,101261.19
2022-11-05T19:49:01.787Z,101261.78
2022-11-05T19:51:30.474Z,101273.28
2022-11-05T19:53:59.250Z,101278.50
2022-11-05T19:56:29.095Z,101265.16
2022-11-05T19:58:56.672Z,101274.19
2022-11-05T20:01:25.356Z,101269.41
2022-11-05T20:03:53.074Z,101278.72
2022-11-05T20:06:31.236Z,101289.22
2022-11-05T20:09:20.622Z,101285.31
2022-11-05T20:11:48.748Z,101287.97
2022-11-05T20:14:15.701Z,101287.28
2022-11-05T20:16:42.310Z,101289.50
2022-11-05T20:19:12.300Z,101284.53
2022-11-05T20:21:38.936Z,101301.72
2022-11-05T20:24:06.039Z,101297.50
2022-11-05T20:26:33.109Z,101297.34
2022-11-05T20:29:02.527Z,101305.47
2022-11-05T20:31:29.628Z,101308.44
2022-11-05T20:33:56.063Z,101298.38
2022-11-05T20:36:25.152Z,101302.53
2022-11-05T20:39:02.298Z,101309.84
2022-11-05T20:41:30.026Z,101303.56
2022-11-05T20:43:56.198Z,101296.56
2022-11-05T20:46:25.267Z,101301.56
2022-11-05T20:48:52.604Z,101298.78
2022-11-05T20:51:21.648Z,101303.03
2022-11-05T20:53:48.388Z,101297.88
2022-11-05T20:56:22.015Z,101306.03
2022-11-05T20:58:48.646Z,101294.47
2022-11-05T21:01:15.917Z,101307.22
2022-11-05T21:03:44.471Z,101302.72
2022-11-05T21:06:11.971Z,101311.59
2022-11-05T21:08:38.553Z,101310.22
2022-11-05T21:11:06.353Z,101315.00
2022-11-05T21:13:32.683Z,101305.09
2022-11-05T21:16:00.112Z,101327.72
2022-11-05T21:18:28.753Z,101313.50
2022-11-05T21:20:55.974Z,101313.06
2022-11-05T21:23:22.275Z,101319.06
2022-11-05T21:25:49.016Z,101315.22
2022-11-05T21:28:16.053Z,101319.09
2022-11-05T21:30:45.343Z,101318.88
2022-11-05T21:33:13.784Z,101325.56
2022-11-05T21:35:43.334Z,101327.72
2022-11-05T21:38:11.401Z,101335.78
2022-11-05T21:40:39.541Z,101320.84
2022-11-05T21:43:06.361Z,101327.53
2022-11-05T21:45:33.174Z,101324.41
2022-11-05T21:47:59.462Z,101320.75
2022-11-05T21:50:45.795Z,101324.94
2022-11-05T21:53:34.327Z,101325.38
2022-11-05T21:56:36.177Z,101325.59
2022-11-05T21:59:22.495Z,101332.06
2022-11-05T22:01:49.847Z,101326.34
2022-11-05T22:04:17.041Z,101329.25
2022-11-05T22:06:44.415Z,101327.84
2022-11-05T22:09:10.786Z,101328.53
2022-11-05T22:11:37.893Z,101333.38
2022-11-05T22:14:04.464Z,101330.47
2022-11-05T22:16:31.048Z,101338.53
2022-11-05T22:18:57.610Z,101334.19
2022-11-05T22:21:24.175Z,101337.00
2022-11-05T22:23:51.773Z,101338.28
2022-11-05T22:26:18.631Z,101332.94
2022-11-05T22:28:44.857Z,101329.38
2022-11-05T22:31:13.189Z,101337.00
2022-11-05T22:33:39.406Z,101332.44
2022-11-05T22:36:06.411Z,101333.25
2022-11-05T22:38:32.747Z,101330.97
2022-11-05T22:40:59.697Z,101331.94
2022-11-05T22:43:26.638Z,101332.47
2022-11-05T22:45:53.491Z,101323.84
2022-11-05T22:48:19.636Z,101326.94
2022-11-05T22:50:46.121Z,101326.34
2022-11-05T22:53:12.265Z,101329.09
2022-11-05T22:55:39.138Z,101332.34
2022-11-05T22:58:05.568Z,101328.38
2022-11-05T23:00:36.838Z,101332.91
2022-11-05T23:03:03.443Z,101334.84
2022-11-05T23:05:30.201Z,101343.25
2022-11-05T23:08:15.575Z,101342.81
2022-11-05T23:11:00.994Z,101340.66
2022-11-05T23:13:27.169Z,101341.44
2022-11-05T23:16:12.458Z,101329.94
2022-11-05T23:18:57.660Z,101334.22
2022-11-05T23:21:42.702Z,101333.69
2022-11-05T23:24:12.101Z,101328.19
2022-11-05T23:26:51.317Z,101334.22
2022-11-05T23:29:23.138Z,101336.44
2022-11-05T23:32:08.287Z,101332.50
2022-11-05T23:34:35.151Z,101332.81
2022-11-05T23:37:21.109Z,101332.50
2022-11-05T23:39:47.396Z,101341.75
2022-11-05T23:42:32.122Z,101341.97
2022-11-05T23:45:17.824Z,101332.50
2022-11-05T23:48:03.046Z,101326.91
2022-11-05T23:50:33.196Z,101335.59
2022-11-05T23:53:03.582Z,101339.91
2022-11-05T23:55:30.503Z,101333.81
2022-11-05T23:57:57.155Z,101335.09
